Time;durP1;ratioP1;P1;durP2;ratioP2;P2;SDS_P1;SDS_P2;PMS_P1;PMS_P2;Temp;Humidity;BMP_temperature;BMP_pressure;BME280_temperature;BME280_humidity;BME280_pressure;Samples;Min_cycle;Max_cycle;Signal;HPM_P1;HPM_P2
2024/02/07 00:02:12;;;;;;;4.70;1.90;;;;;;;9.97;74.68;99656.00;10451630;28;20064;-65
2024/02/07 00:07:13;;;;;;;8.90;2.67;;;;;;;9.99;74.31;99648.63;10457140;28;20614;-65
2024/02/07 00:12:15;;;;;;;4.97;1.60;;;;;;;10.01;73.87;99643.03;10450156;28;20048;-65
2024/02/07 00:17:17;;;;;;;5.13;1.63;;;;;;;10.02;74.23;99645.53;10459256;28;20053;-65
2024/02/07 00:22:18;;;;;;;4.35;2.50;;;;;;;10.06;74.08;99637.94;10450776;28;20650;-64
2024/02/07 00:27:20;;;;;;;7.30;1.75;;;;;;;10.09;73.69;99622.28;10452207;28;20060;-65
2024/02/07 00:32:21;;;;;;;3.33;1.92;;;;;;;10.16;73.42;99614.28;10450549;28;20061;-65
2024/02/07 00:37:22;;;;;;;3.53;1.95;;;;;;;10.23;73.65;99623.25;10458368;28;20053;-65
2024/02/07 00:42:24;;;;;;;3.45;1.42;;;;;;;10.25;73.19;99618.50;10450277;28;20084;-65
2024/02/07 00:47:26;;;;;;;5.00;2.33;;;;;;;10.34;73.20;99595.06;10453385;28;20047;-64
2024/02/07 00:52:27;;;;;;;4.63;1.98;;;;;;;10.37;73.06;99607.25;10448467;28;20056;-65
2024/02/07 00:57:29;;;;;;;7.25;2.72;;;;;;;10.47;72.95;99616.66;10447672;28;20052;-65
2024/02/07 01:02:30;;;;;;;7.60;2.55;;;;;;;10.58;72.70;99601.03;10448709;28;20060;-65
2024/02/07 01:07:32;;;;;;;6.28;2.38;;;;;;;10.61;72.39;99614.09;10446630;28;20083;-65
2024/02/07 01:12:33;;;;;;;6.80;2.65;;;;;;;10.65;72.40;99596.56;10446842;28;20041;-65
2024/02/07 01:17:35;;;;;;;7.97;3.53;;;;;;;10.74;72.11;99586.47;10453979;28;20052;-65
2024/02/07 01:22:37;;;;;;;9.40;3.50;;;;;;;10.77;72.22;99586.09;10445780;28;20151;-67
2024/02/07 01:27:39;;;;;;;8.07;3.88;;;;;;;10.74;72.75;99583.78;10447595;28;20041;-67
2024/02/07 01:32:41;;;;;;;8.70;3.78;;;;;;;10.74;72.38;99568.47;10454259;28;20045;-66
2024/02/07 01:37:43;;;;;;;6.88;3.85;;;;;;;10.75;72.42;99569.34;10453942;28;20044;-68
2024/02/07 01:42:45;;;;;;;11.98;3.63;;;;;;;10.79;72.51;99562.53;10449222;28;20136;-66
2024/02/07 01:47:47;;;;;;;12.00;4.60;;;;;;;10.79;72.52;99563.38;10450662;28;20053;-66
2024/02/07 01:52:52;;;;;;;8.75;3.42;;;;;;;10.81;72.14;99557.78;10449668;28;20486;-66
2024/02/07 01:57:55;;;;;;;8.93;3.78;;;;;;;10.82;72.39;99548.69;10450697;28;20045;-67
2024/02/07 02:02:58;;;;;;;7.93;4.10;;;;;;;10.78;72.62;99544.72;10441751;28;20053;-66
2024/02/07 02:08:02;;;;;;;10.02;4.20;;;;;;;10.74;72.41;99540.78;10452096;28;20051;-67
2024/02/07 02:13:04;;;;;;;12.65;4.65;;;;;;;10.71;72.58;99529.41;10448392;28;20219;-67
2024/02/07 02:18:05;;;;;;;10.63;4.53;;;;;;;10.75;72.78;99529.84;10437130;28;20488;-66
2024/02/07 02:23:20;;;;;;;13.00;5.75;;;;;;;10.80;72.90;99523.84;10450525;28;20061;-66
2024/02/07 02:28:29;;;;;;;10.35;4.70;;;;;;;10.82;73.00;99524.50;10449422;28;20049;-66
2024/02/07 02:33:34;;;;;;;9.05;3.55;;;;;;;10.86;73.16;99517.69;10446416;28;20060;-66
2024/02/07 02:38:36;;;;;;;10.85;4.65;;;;;;;10.91;72.49;99510.69;10443351;28;20053;-67
2024/02/07 02:43:37;;;;;;;10.07;5.22;;;;;;;10.91;73.06;99491.03;10439906;28;20055;-66
2024/02/07 02:48:39;;;;;;;19.85;5.80;;;;;;;10.92;72.94;99500.78;10444097;28;20117;-66
2024/02/07 02:53:41;;;;;;;11.85;5.10;;;;;;;10.93;73.08;99490.84;10440765;28;20064;-66
2024/02/07 02:58:42;;;;;;;16.98;5.15;;;;;;;10.94;73.11;99490.66;10442510;28;20049;-66
2024/02/07 03:03:53;;;;;;;11.27;3.80;;;;;;;11.04;72.74;99492.97;10453738;28;20506;-67
2024/02/07 03:09:07;;;;;;;9.15;3.75;;;;;;;11.05;72.48;99483.88;10446056;28;20044;-67
2024/02/07 03:14:10;;;;;;;11.63;3.80;;;;;;;11.05;72.86;99470.41;10451301;28;20057;-67
2024/02/07 03:19:12;;;;;;;7.40;3.10;;;;;;;11.05;72.30;99465.03;10449612;28;20429;-67
2024/02/07 03:24:14;;;;;;;10.50;2.88;;;;;;;11.12;72.16;99455.16;10445481;28;20106;-67
2024/02/07 03:29:15;;;;;;;5.93;3.00;;;;;;;11.14;72.18;99444.16;10448217;28;20528;-67
2024/02/07 03:34:17;;;;;;;10.20;3.65;;;;;;;11.16;72.07;99432.19;10448524;28;20055;-66
2024/02/07 03:39:22;;;;;;;6.35;2.60;;;;;;;11.21;71.59;99423.50;10447257;28;20395;-65
2024/02/07 03:44:23;;;;;;;11.05;2.95;;;;;;;11.27;71.55;99411.94;10446851;28;20045;-65
2024/02/07 03:49:25;;;;;;;9.43;3.33;;;;;;;11.23;71.79;99426.81;10436199;28;20515;-66
2024/02/07 03:54:27;;;;;;;11.80;3.10;;;;;;;11.22;71.41;99398.28;10450346;28;20654;-66
2024/02/07 03:59:28;;;;;;;4.00;2.03;;;;;;;11.19;71.77;99407.56;10446741;28;20743;-65
2024/02/07 04:04:30;;;;;;;5.75;2.65;;;;;;;11.00;71.81;99408.34;10453053;28;20045;-65
2024/02/07 04:09:31;;;;;;;10.02;3.03;;;;;;;10.76;72.77;99386.31;10449336;28;20099;-65
2024/02/07 05:18:18;;;;;;;12.80;5.20;;;;;;;9.80;77.53;99303.81;10450346;28;20099;-65
2024/02/07 05:23:20;;;;;;;11.02;4.63;;;;;;;9.81;77.44;99289.34;10451768;28;20053;-66
2024/02/07 05:28:22;;;;;;;10.57;5.07;;;;;;;9.78;77.83;99294.31;10442825;28;20052;-66
2024/02/07 05:33:24;;;;;;;14.98;6.28;;;;;;;9.75;78.04;99290.13;10448209;28;20167;-67
2024/02/07 05:38:26;;;;;;;12.43;5.55;;;;;;;9.80;78.26;99281.50;10453958;28;20495;-68
2024/02/07 05:43:27;;;;;;;16.90;6.03;;;;;;;9.77;78.59;99292.63;10449819;28;20140;-66
2024/02/07 05:48:29;;;;;;;15.10;7.38;;;;;;;9.79;78.39;99286.03;10442560;28;20098;-66
2024/02/07 05:53:31;;;;;;;18.77;7.43;;;;;;;9.82;78.38;99277.59;10452006;28;20041;-65
2024/02/07 05:58:33;;;;;;;12.45;5.78;;;;;;;9.77;78.99;99282.72;10465616;28;20132;-66
2024/02/07 06:03:35;;;;;;;12.32;5.93;;;;;;;9.79;79.02;99286.03;10436024;28;20071;-65
2024/02/07 06:08:37;;;;;;;11.55;5.13;;;;;;;9.78;79.45;99291.63;10447330;28;20715;-65
2024/02/07 06:13:39;;;;;;;14.38;4.90;;;;;;;9.79;79.58;99277.16;10443441;28;20068;-65
2024/02/07 06:18:40;;;;;;;13.73;5.57;;;;;;;9.80;79.81;99270.78;10446501;28;20427;-65
2024/02/07 06:23:42;;;;;;;15.77;6.13;;;;;;;9.82;79.89;99248.06;10449483;28;20127;-65
2024/02/07 06:28:46;;;;;;;15.90;5.75;;;;;;;9.82;79.92;99263.34;10451307;28;20068;-66
2024/02/07 06:33:48;;;;;;;10.27;4.70;;;;;;;9.84;79.83;99262.13;10444834;28;20554;-68
2024/02/07 06:38:49;;;;;;;16.77;5.88;;;;;;;9.86;80.28;99262.75;10440184;28;20052;-67
2024/02/07 06:43:51;;;;;;;12.98;5.03;;;;;;;9.84;80.33;99269.34;10443727;28;20132;-67
2024/02/07 06:48:52;;;;;;;14.15;5.20;;;;;;;9.79;80.77;99271.78;10451406;28;20072;-69
2024/02/07 06:53:54;;;;;;;8.93;4.47;;;;;;;9.84;80.39;99259.44;10448724;28;20106;-62
2024/02/07 06:58:55;;;;;;;15.65;5.35;;;;;;;9.87;80.63;99263.56;10443323;28;20053;-62
2024/02/07 07:03:57;;;;;;;7.55;4.57;;;;;;;9.88;80.61;99268.75;10440405;28;20060;-60
2024/02/07 07:08:59;;;;;;;12.93;5.05;;;;;;;9.95;80.57;99270.63;10446679;28;20052;-60
2024/02/07 07:14:00;;;;;;;14.90;6.55;;;;;;;9.93;80.72;99265.47;10451183;28;20148;-62
2024/02/07 07:19:03;;;;;;;10.52;4.43;;;;;;;9.87;81.08;99258.19;10447820;28;20057;-61
2024/02/07 07:24:05;;;;;;;9.45;4.63;;;;;;;9.84;81.12;99258.63;10443986;28;20055;-62
2024/02/07 07:29:07;;;;;;;12.18;4.28;;;;;;;9.89;81.30;99250.78;10454500;28;20045;-62
2024/02/07 07:34:08;;;;;;;8.77;4.35;;;;;;;9.89;81.33;99240.03;10438246;28;20056;-61
2024/02/07 07:39:10;;;;;;;8.73;4.63;;;;;;;9.99;81.24;99247.72;10442027;28;20111;-61
2024/02/07 07:44:11;;;;;;;11.65;5.28;;;;;;;9.96;81.38;99245.47;10449380;28;20171;-62
2024/02/07 07:49:13;;;;;;;11.70;4.90;;;;;;;9.96;81.39;99238.22;10450232;28;20699;-61
2024/02/07 07:54:15;;;;;;;10.80;4.05;;;;;;;9.95;81.41;99233.06;10461766;28;20587;-63
2024/02/07 07:59:16;;;;;;;6.75;3.25;;;;;;;10.05;81.61;99244.25;10460497;28;20048;-64
2024/02/07 08:04:19;;;;;;;6.45;3.13;;;;;;;10.05;81.14;99242.41;10457147;28;20057;-62
2024/02/07 08:09:20;;;;;;;11.80;4.05;;;;;;;10.06;81.38;99236.00;10446997;28;20368;-62
2024/02/07 08:14:22;;;;;;;8.27;3.20;;;;;;;10.09;81.30;99234.75;10460616;28;20053;-63
2024/02/07 08:19:24;;;;;;;8.90;4.00;;;;;;;10.08;81.53;99227.75;10450623;28;20048;-61
2024/02/07 08:24:25;;;;;;;8.95;3.40;;;;;;;10.09;81.70;99224.03;10457292;28;20045;-63
2024/02/07 08:29:29;;;;;;;8.10;3.70;;;;;;;10.13;81.72;99236.88;10448920;28;20051;-62
2024/02/07 08:34:30;;;;;;;8.73;3.25;;;;;;;10.17;81.34;99237.28;10449241;28;20055;-63
2024/02/07 08:39:32;;;;;;;9.07;3.85;;;;;;;10.19;81.71;99234.38;10452415;28;20439;-63
2024/02/07 08:44:33;;;;;;;8.23;3.50;;;;;;;10.18;81.45;99222.00;10455221;28;20049;-63
2024/02/07 08:49:36;;;;;;;11.52;3.38;;;;;;;10.22;81.59;99234.00;10457992;28;20055;-64
2024/02/07 08:54:37;;;;;;;6.57;3.13;;;;;;;10.24;81.53;99221.19;10455146;28;20048;-62
2024/02/07 08:59:39;;;;;;;7.20;2.90;;;;;;;10.26;81.76;99219.94;10460010;28;20048;-60
2024/02/07 09:04:40;;;;;;;9.93;3.17;;;;;;;10.28;81.84;99215.22;10451530;28;20053;-62
2024/02/07 09:09:42;;;;;;;6.80;2.72;;;;;;;10.37;81.89;99209.69;10443670;28;20511;-61
2024/02/07 09:14:43;;;;;;;6.95;2.35;;;;;;;10.37;81.67;99215.06;10451731;28;20136;-62
2024/02/07 09:19:45;;;;;;;6.40;3.13;;;;;;;10.39;81.70;99215.69;10443700;28;20132;-61
2024/02/07 09:24:46;;;;;;;6.22;2.55;;;;;;;10.42;81.97;99202.66;10453374;28;20106;-66
2024/02/07 09:29:48;;;;;;;5.63;2.38;;;;;;;10.44;81.79;99205.97;10457103;28;20045;-65
2024/02/07 09:35:00;;;;;;;5.15;2.55;;;;;;;10.49;81.50;99205.38;10451270;28;20071;-65
2024/02/07 09:40:03;;;;;;;11.73;3.30;;;;;;;10.49;81.67;99197.31;10448951;28;20685;-64
2024/02/07 09:45:08;;;;;;;9.57;3.47;;;;;;;10.52;81.60;99202.28;10440745;28;20051;-63
2024/02/07 09:50:10;;;;;;;2.78;1.40;;;;;;;10.58;81.89;99196.09;10443986;28;20559;-62
2024/02/07 09:55:11;;;;;;;4.20;2.00;;;;;;;10.63;81.87;99188.25;10446259;28;20048;-61
2024/02/07 10:00:13;;;;;;;3.60;1.88;;;;;;;10.68;81.80;99193.84;10454373;28;20044;-62
2024/02/07 10:05:21;;;;;;;5.15;1.77;;;;;;;10.74;81.78;99183.28;10465445;28;20389;-69
2024/02/07 10:10:23;;;;;;;4.63;2.13;;;;;;;10.82;81.23;99192.00;10477488;28;20072;-61
2024/02/07 10:15:25;;;;;;;3.70;1.55;;;;;;;10.89;81.28;99178.53;10435548;28;20057;-61
2024/02/07 10:20:27;;;;;;;6.80;2.22;;;;;;;10.95;81.09;99191.16;10440484;28;20391;-60
2024/02/07 10:25:28;;;;;;;5.93;2.13;;;;;;;11.02;80.78;99197.38;10446672;28;20484;-60
2024/02/07 10:30:30;;;;;;;2.75;1.38;;;;;;;11.07;80.76;99188.66;10447205;28;20147;-63
2024/02/07 10:35:32;;;;;;;4.65;1.67;;;;;;;11.11;81.21;99190.72;10451772;28;20385;-63
2024/02/07 10:40:33;;;;;;;5.60;1.02;;;;;;;11.18;80.67;99176.47;10443810;28;20052;-62
2024/02/07 10:45:35;;;;;;;2.97;1.30;;;;;;;11.22;80.52;99183.06;10444448;28;20135;-62
2024/02/07 10:50:36;;;;;;;3.65;1.02;;;;;;;11.19;80.70;99170.03;10451373;28;20049;-61
2024/02/07 10:55:38;;;;;;;1.65;0.90;;;;;;;11.16;80.66;99175.81;10444372;28;20052;-61
2024/02/07 11:00:41;;;;;;;4.20;0.82;;;;;;;11.13;80.79;99173.56;10444677;28;20110;-61
2024/02/07 11:05:42;;;;;;;3.83;1.00;;;;;;;11.17;81.14;99164.03;10445516;28;20040;-59
2024/02/07 11:10:45;;;;;;;5.25;1.38;;;;;;;11.15;81.16;99161.56;10447864;28;20212;-60
2024/02/07 11:15:46;;;;;;;2.83;0.90;;;;;;;11.14;80.81;99157.22;10449186;28;20061;-61
2024/02/07 11:20:49;;;;;;;4.40;1.00;;;;;;;11.15;81.11;99153.47;10448466;28;20047;-61
2024/02/07 11:25:52;;;;;;;5.00;1.08;;;;;;;11.19;81.18;99146.66;10454378;28;20051;-60
2024/02/07 11:30:55;;;;;;;3.50;0.77;;;;;;;11.10;81.23;99137.97;10455583;28;20507;-61
2024/02/07 11:36:27;;;;;;;3.95;1.10;;;;;;;11.19;81.29;99140.44;10459412;28;20067;-61
2024/02/07 11:41:28;;;;;;;2.65;0.88;;;;;;;11.15;81.04;99137.34;10452247;28;20049;-61
2024/02/07 11:46:30;;;;;;;5.03;0.88;;;;;;;11.14;81.28;99135.72;10458232;28;20457;-61
2024/02/07 11:51:33;;;;;;;1.92;0.90;;;;;;;11.19;81.55;99127.81;10444270;28;20424;-59
2024/02/07 11:56:34;;;;;;;4.32;1.13;;;;;;;11.15;81.67;99131.97;10449628;28;20059;-61
2024/02/07 12:01:36;;;;;;;3.17;0.98;;;;;;;11.17;81.11;99127.19;10453493;28;20436;-61
2024/02/07 12:06:37;;;;;;;3.58;1.10;;;;;;;11.15;81.86;99129.28;10456135;28;20131;-62
2024/02/07 12:11:39;;;;;;;1.67;0.80;;;;;;;11.30;80.95;99124.50;10453528;28;20069;-61
2024/02/07 12:16:41;;;;;;;1.42;0.70;;;;;;;11.21;81.20;99109.59;10455495;28;20048;-61
2024/02/07 12:21:42;;;;;;;1.20;0.63;;;;;;;11.25;81.63;99121.59;10456599;28;20045;-62
2024/02/07 12:26:44;;;;;;;2.72;0.82;;;;;;;11.37;80.98;99129.03;10443901;28;20801;-61
2024/02/07 12:31:45;;;;;;;0.98;0.57;;;;;;;11.23;81.56;99129.03;10452425;28;20392;-63
2024/02/07 12:36:47;;;;;;;5.68;0.82;;;;;;;11.31;81.63;99139.59;10453689;28;20041;-61
2024/02/07 12:41:48;;;;;;;0.10;0.10;;;;;;;11.21;81.02;99165.28;10454313;28;20045;-60
2024/02/07 12:46:50;;;;;;;0.00;0.00;;;;;;;10.04;80.58;99165.56;10443896;28;20511;-62
2024/02/07 12:51:51;;;;;;;0.10;0.10;;;;;;;9.37;80.03;99166.31;10449327;28;20053;-61
2024/02/07 12:56:53;;;;;;;0.00;0.00;;;;;;;8.71;80.40;99176.34;10448820;28;20045;-60
2024/02/07 13:01:55;;;;;;;0.70;0.10;;;;;;;8.33;80.51;99173.91;10460291;28;20054;-63
2024/02/07 13:07:02;;;;;;;0.65;0.10;;;;;;;7.93;81.08;99199.41;10459224;28;20060;-61
2024/02/07 13:12:04;;;;;;;0.00;0.00;;;;;;;7.48;81.48;99211.97;10447066;28;20140;-62
2024/02/07 13:17:19;;;;;;;0.10;0.00;;;;;;;7.30;80.88;99210.47;10453160;28;20069;-62
2024/02/07 13:22:20;;;;;;;0.65;0.10;;;;;;;7.13;81.37;99236.56;10452109;28;20077;-60
2024/02/07 13:27:22;;;;;;;1.13;0.00;;;;;;;7.03;81.54;99243.16;10439391;28;20128;-60
2024/02/07 13:32:23;;;;;;;0.20;0.00;;;;;;;7.01;81.21;99239.81;10449364;28;20551;-60
2024/02/07 13:37:25;;;;;;;0.55;0.00;;;;;;;6.99;81.64;99250.72;10453448;28;20056;-61
2024/02/07 13:42:26;;;;;;;0.55;0.10;;;;;;;6.92;81.85;99255.94;10450853;28;20068;-62
2024/02/07 13:47:28;;;;;;;0.25;0.05;;;;;;;6.82;81.57;99263.38;10453852;28;20048;-60
2024/02/07 13:52:30;;;;;;;1.25;0.10;;;;;;;6.84;81.81;99265.84;10444035;28;20049;-61
2024/02/07 13:57:31;;;;;;;0.32;0.10;;;;;;;6.77;81.15;99255.03;10451997;28;20123;-60
2024/02/07 14:02:33;;;;;;;0.30;0.10;;;;;;;6.66;81.76;99268.84;10452487;28;20051;-61
2024/02/07 14:07:35;;;;;;;0.13;0.10;;;;;;;6.57;81.71;99265.38;10453217;28;20056;-65
2024/02/07 14:12:36;;;;;;;1.02;0.10;;;;;;;6.55;81.17;99270.88;10445542;28;20087;-65
2024/02/07 14:17:38;;;;;;;0.63;0.10;;;;;;;6.52;81.51;99263.25;10470014;28;20049;-65
2024/02/07 14:22:39;;;;;;;0.60;0.10;;;;;;;6.44;81.52;99271.31;10463188;28;20049;-65
2024/02/07 14:27:59;;;;;;;0.30;0.20;;;;;;;6.43;81.15;99266.13;10457670;28;20045;-66
2024/02/07 14:33:00;;;;;;;0.40;0.00;;;;;;;6.37;81.26;99259.66;10457045;28;20041;-65
2024/02/07 14:38:02;;;;;;;0.35;0.35;;;;;;;6.26;81.17;99270.72;10451880;28;20045;-65
2024/02/07 14:43:04;;;;;;;1.55;0.10;;;;;;;6.27;81.11;99275.06;10447986;28;20071;-66
2024/02/07 14:48:06;;;;;;;0.08;0.00;;;;;;;6.29;80.66;99265.03;10446350;28;20115;-65
2024/02/07 14:53:07;;;;;;;1.38;0.10;;;;;;;6.37;80.06;99273.00;10447343;28;20056;-65
2024/02/07 14:58:09;;;;;;;0.10;0.10;;;;;;;6.42;80.39;99259.97;10444689;28;20101;-65
2024/02/07 15:03:12;;;;;;;0.85;0.10;;;;;;;6.47;80.46;99262.94;10450896;28;20079;-63
2024/02/07 15:08:14;;;;;;;1.23;0.00;;;;;;;6.49;80.08;99260.91;10450191;28;20055;-65
2024/02/07 15:13:16;;;;;;;3.30;0.20;;;;;;;6.43;80.57;99252.78;10440565;28;20056;-64
2024/02/07 15:18:17;;;;;;;1.17;1.08;;;;;;;6.45;79.82;99246.25;10445286;28;20128;-60
2024/02/07 15:23:19;;;;;;;2.20;0.20;;;;;;;6.32;79.65;99238.03;10456596;23;20393;-60
2024/02/07 15:28:20;;;;;;;0.80;0.25;;;;;;;6.41;80.19;99244.13;10428789;28;20077;-62
2024/02/07 15:33:22;;;;;;;1.75;0.25;;;;;;;6.38;79.84;99256.00;10429104;28;20053;-60
2024/02/07 15:38:23;;;;;;;1.83;0.80;;;;;;;6.43;80.06;99264.28;10424930;28;20084;-60
2024/02/07 15:43:25;;;;;;;4.60;0.60;;;;;;;6.33;79.76;99264.50;10431162;28;20092;-60
2024/02/07 15:48:26;;;;;;;1.80;0.30;;;;;;;6.25;79.62;99261.88;10423002;28;20083;-60
2024/02/07 15:53:28;;;;;;;0.82;0.20;;;;;;;6.18;80.20;99252.94;10429482;28;20748;-60
2024/02/07 15:58:30;;;;;;;2.13;0.70;;;;;;;6.17;79.77;99253.09;10425487;28;20045;-60
2024/02/07 16:03:31;;;;;;;0.70;0.40;;;;;;;6.01;80.09;99254.03;10432022;28;20107;-59
2024/02/07 16:08:32;;;;;;;4.40;0.40;;;;;;;6.07;80.20;99247.97;10432463;28;20049;-58
2024/02/07 16:13:35;;;;;;;1.05;0.20;;;;;;;6.10;80.54;99247.63;10434642;28;20079;-58
2024/02/07 16:18:37;;;;;;;0.80;0.70;;;;;;;6.09;79.72;99237.97;10425049;28;20053;-59
2024/02/07 16:23:39;;;;;;;2.05;0.52;;;;;;;5.99;79.67;99245.34;10428450;28;20444;-59
2024/02/07 16:28:40;;;;;;;1.92;0.20;;;;;;;6.03;80.05;99238.66;10422324;28;20041;-59
2024/02/07 16:33:42;;;;;;;0.55;0.30;;;;;;;6.00;79.79;99237.16;10428605;28;20049;-59
2024/02/07 16:38:43;;;;;;;3.83;0.22;;;;;;;5.85;80.26;99241.56;10427544;28;20068;-59
2024/02/07 16:43:47;;;;;;;2.30;0.30;;;;;;;5.85;80.71;99245.03;10432356;28;20056;-59
2024/02/07 16:48:49;;;;;;;0.60;0.30;;;;;;;5.91;80.50;99246.19;10425191;28;20063;-70
2024/02/07 16:53:50;;;;;;;1.58;0.60;;;;;;;5.86;79.70;99245.88;10435530;28;20061;-64
2024/02/07 16:58:52;;;;;;;2.20;0.40;;;;;;;5.87;80.65;99247.53;10435909;28;20046;-65
2024/02/07 17:03:53;;;;;;;1.02;0.57;;;;;;;5.81;80.27;99248.25;10431299;28;20076;-67
2024/02/07 17:08:55;;;;;;;2.00;0.60;;;;;;;5.74;80.42;99248.91;10432768;28;20080;-66
2024/02/07 17:13:56;;;;;;;1.80;0.80;;;;;;;5.78;80.49;99249.41;10433451;28;20063;-66
2024/02/07 17:18:58;;;;;;;1.10;0.60;;;;;;;5.78;79.96;99260.06;10441529;28;20116;-68
2024/02/07 17:24:01;;;;;;;0.93;0.60;;;;;;;5.71;79.96;99254.59;10437312;28;20093;-63
2024/02/07 17:29:03;;;;;;;1.65;0.60;;;;;;;5.76;80.28;99259.41;10433166;28;20041;-67
2024/02/07 17:34:04;;;;;;;1.40;0.40;;;;;;;5.64;80.31;99255.44;10437252;28;20045;-67
2024/02/07 17:39:06;;;;;;;1.67;1.10;;;;;;;5.63;80.38;99254.63;10421761;28;20055;-64
2024/02/07 17:44:07;;;;;;;2.35;0.60;;;;;;;5.59;80.98;99263.13;10430716;28;20072;-65
2024/02/07 17:49:09;;;;;;;5.57;1.00;;;;;;;5.47;80.34;99268.81;10427375;28;20044;-64
2024/02/07 17:54:10;;;;;;;1.38;0.73;;;;;;;5.57;81.07;99268.63;10423792;28;20051;-64
2024/02/07 17:59:12;;;;;;;1.02;0.45;;;;;;;5.63;80.57;99259.97;10431035;28;20526;-65
2024/02/07 18:04:13;;;;;;;2.40;0.60;;;;;;;5.68;80.56;99249.59;10434006;28;20075;-65
2024/02/07 18:09:17;;;;;;;1.00;0.35;;;;;;;5.68;80.15;99249.59;10430087;28;20060;-65
2024/02/07 18:14:18;;;;;;;1.48;0.73;;;;;;;5.66;80.31;99250.78;10426341;28;20049;-65
2024/02/07 18:19:20;;;;;;;1.50;0.43;;;;;;;5.62;80.76;99250.28;10431437;28;20053;-65
2024/02/07 18:24:22;;;;;;;2.03;0.50;;;;;;;5.59;80.82;99245.31;10429676;28;20465;-65
2024/02/07 18:29:23;;;;;;;0.98;0.68;;;;;;;5.68;79.81;99241.59;10429335;28;20484;-64
2024/02/07 18:34:25;;;;;;;1.40;0.50;;;;;;;5.64;80.54;99232.28;10427454;28;20056;-65
2024/02/07 18:39:27;;;;;;;1.83;0.75;;;;;;;5.66;80.35;99221.44;10429700;28;20049;-64
2024/02/07 18:44:29;;;;;;;2.97;1.23;;;;;;;5.57;80.99;99229.47;10428483;28;20045;-64
2024/02/07 18:49:30;;;;;;;2.90;0.80;;;;;;;5.53;80.45;99222.00;10424829;28;20143;-62
2024/02/07 18:54:32;;;;;;;2.60;0.85;;;;;;;5.51;80.08;99211.50;10420201;28;20040;-61
2024/02/07 18:59:33;;;;;;;4.90;1.77;;;;;;;5.54;80.25;99210.31;10421935;28;20044;-62
2024/02/07 19:04:35;;;;;;;9.55;3.17;;;;;;;5.61;80.81;99202.47;10421920;28;20046;-62
2024/02/07 19:09:36;;;;;;;4.45;1.52;;;;;;;5.47;80.93;99204.00;10418416;28;20049;-62
2024/02/07 19:14:38;;;;;;;7.07;2.50;;;;;;;5.41;80.84;99204.69;10424020;28;20052;-61
2024/02/07 19:19:40;;;;;;;4.45;1.60;;;;;;;5.42;80.71;99198.38;10422570;28;20492;-61
2024/02/07 19:24:41;;;;;;;4.30;2.03;;;;;;;5.42;81.05;99187.72;10422791;28;20110;-62
2024/02/07 19:29:43;;;;;;;4.25;2.15;;;;;;;5.44;80.68;99183.88;10421568;28;20045;-61
2024/02/07 19:34:45;;;;;;;6.80;1.88;;;;;;;5.42;80.80;99179.72;10425394;28;20492;-61
2024/02/07 19:39:46;;;;;;;7.05;2.35;;;;;;;5.39;80.62;99175.59;10424965;28;20061;-61
2024/02/07 19:44:49;;;;;;;8.27;2.50;;;;;;;5.26;80.60;99170.78;10428112;28;20049;-61
2024/02/07 19:49:50;;;;;;;6.63;2.92;;;;;;;5.40;80.57;99163.91;10430008;28;20045;-61
2024/02/07 19:54:52;;;;;;;5.75;1.92;;;;;;;5.36;81.08;99157.25;10430570;28;20041;-63
2024/02/07 19:59:54;;;;;;;9.15;3.20;;;;;;;5.35;80.94;99159.09;10433033;28;20174;-61
2024/02/07 20:04:55;;;;;;;4.18;2.40;;;;;;;5.19;81.03;99167.13;10426918;28;20074;-61
2024/02/07 20:09:57;;;;;;;4.85;1.42;;;;;;;5.19;80.97;99164.47;10431756;28;20050;-63
2024/02/07 20:15:02;;;;;;;5.18;2.13;;;;;;;5.24;80.85;99146.13;10425533;28;20059;-66
2024/02/07 20:20:06;;;;;;;8.40;3.30;;;;;;;5.33;80.44;99146.94;10428871;28;20526;-63
2024/02/07 20:25:09;;;;;;;8.48;3.92;;;;;;;5.33;81.06;99131.78;10431374;28;20049;-64
2024/02/07 20:30:11;;;;;;;3.35;1.95;;;;;;;5.31;80.95;99132.94;10426504;28;20064;-64
2024/02/07 20:35:14;;;;;;;4.30;2.22;;;;;;;5.38;81.17;99125.13;10428017;28;20500;-64
2024/02/07 20:40:16;;;;;;;4.05;1.77;;;;;;;5.38;81.23;99133.94;10429906;28;20056;-64
2024/02/07 20:45:19;;;;;;;2.95;1.92;;;;;;;5.52;80.23;99132.38;10424174;28;20053;-63
2024/02/07 20:50:22;;;;;;;2.78;1.35;;;;;;;5.57;80.09;99125.53;10397532;28;20053;-64
2024/02/07 20:55:23;;;;;;;4.88;2.15;;;;;;;5.59;80.55;99121.84;10409491;28;20065;-65
2024/02/07 21:00:25;;;;;;;6.75;2.00;;;;;;;5.38;81.04;99119.78;10429537;28;20087;-63
2024/02/07 21:05:29;;;;;;;4.80;1.55;;;;;;;5.42;80.37;99111.25;10428990;28;20062;-65
2024/02/07 21:10:30;;;;;;;4.40;1.85;;;;;;;5.48;80.75;99113.22;10428705;28;20056;-64
2024/02/07 21:15:32;;;;;;;4.97;1.70;;;;;;;5.51;80.67;99098.72;10424639;28;20041;-66
2024/02/07 21:20:34;;;;;;;2.63;1.42;;;;;;;5.51;80.31;99096.06;10430817;28;20135;-66
2024/02/07 21:25:35;;;;;;;3.53;1.48;;;;;;;5.47;80.97;99086.75;10425999;28;20327;-67
2024/02/07 21:30:37;;;;;;;3.08;1.20;;;;;;;5.40;81.06;99089.28;10433966;28;20107;-66
2024/02/07 21:35:38;;;;;;;4.35;1.45;;;;;;;5.38;80.85;99088.63;10430820;28;20048;-66
2024/02/07 21:40:40;;;;;;;3.03;1.60;;;;;;;5.49;80.64;99087.41;10425047;28;20136;-65
2024/02/07 21:45:41;;;;;;;2.25;0.98;;;;;;;5.48;80.23;99094.56;10429107;28;20041;-66
2024/02/07 21:50:43;;;;;;;3.03;1.13;;;;;;;5.37;81.24;99078.97;10426207;28;20045;-67
2024/02/07 21:55:44;;;;;;;5.03;1.00;;;;;;;5.32;81.31;99084.00;10417688;28;20064;-64
2024/02/07 22:00:46;;;;;;;3.63;0.80;;;;;;;5.26;81.11;99080.19;10426719;28;20877;-63
2024/02/07 22:05:47;;;;;;;3.13;1.00;;;;;;;5.19;80.61;99076.53;10424767;28;20052;-66
2024/02/07 22:10:49;;;;;;;2.72;0.90;;;;;;;5.26;80.89;99074.88;10424142;28;20048;-66
2024/02/07 22:15:54;;;;;;;1.45;0.80;;;;;;;5.27;80.66;99071.22;10426684;28;20053;-66
2024/02/07 22:20:56;;;;;;;2.55;0.82;;;;;;;5.21;80.71;99071.88;10437830;28;20075;-68
2024/02/07 22:25:58;;;;;;;1.77;0.68;;;;;;;5.19;81.22;99071.22;10454891;28;20113;-68
2024/02/07 22:30:59;;;;;;;2.30;0.50;;;;;;;5.15;81.24;99069.91;10450692;28;20045;-68
2024/02/07 22:46:50;;;;;;;1.73;0.70;;;;;;;5.27;81.30;99054.38;10512737;23;20087;-82
2024/02/07 22:51:52;;;;;;;4.03;0.80;;;;;;;5.28;80.82;99059.53;10324349;28;20473;-82
2024/02/07 22:56:54;;;;;;;1.58;0.68;;;;;;;5.20;80.87;99058.75;10356454;28;20103;-82
2024/02/07 23:01:57;;;;;;;3.38;0.60;;;;;;;5.23;80.84;99053.88;10348369;28;20051;-82
2024/02/07 23:07:01;;;;;;;2.10;0.80;;;;;;;5.29;80.79;99052.38;10342569;28;20041;-82
2024/02/07 23:12:03;;;;;;;1.90;0.55;;;;;;;5.26;80.66;99052.72;10340675;28;20047;-81
2024/02/07 23:17:05;;;;;;;1.08;0.50;;;;;;;5.28;80.94;99050.72;10296054;28;20059;-85
2024/02/07 23:22:06;;;;;;;1.05;0.50;;;;;;;5.30;80.54;99060.19;10268160;28;20047;-85
2024/02/07 23:27:10;;;;;;;1.92;0.60;;;;;;;5.29;81.10;99061.22;10259544;28;20059;-85
2024/02/07 23:32:11;;;;;;;1.08;0.30;;;;;;;5.30;80.76;99043.38;10277771;28;20055;-86
2024/02/07 23:37:13;;;;;;;0.50;0.30;;;;;;;5.47;80.82;99039.63;10268160;28;20063;-85
2024/02/07 23:42:16;;;;;;;0.90;0.20;;;;;;;5.53;80.82;99040.78;10242355;28;20059;-86
2024/02/07 23:47:22;;;;;;;1.88;0.40;;;;;;;5.62;80.31;99037.03;10276290;28;20057;-86
2024/02/07 23:52:24;;;;;;;0.35;0.20;;;;;;;5.62;80.44;99047.69;10255932;28;20046;-85
2024/02/07 23:57:25;;;;;;;0.30;0.20;;;;;;;5.64;80.62;99045.66;10312589;28;20043;-82
